createdAt,value
2018-05-03T00:00:26.056Z,3.97
2018-05-03T00:02:59.243Z,4.33
2018-05-03T00:05:33.673Z,3.30
2018-05-03T00:08:06.724Z,4.50
2018-05-03T00:10:39.847Z,4.07
2018-05-03T00:13:13.200Z,3.60
2018-05-03T00:15:47.020Z,3.40
2018-05-03T00:18:20.041Z,3.60
2018-05-03T00:20:53.415Z,4.00
2018-05-03T00:23:28.079Z,4.03
2018-05-03T00:26:01.427Z,3.80
2018-05-03T00:28:34.794Z,4.20
2018-05-03T00:31:08.593Z,4.10
2018-05-03T00:33:41.617Z,4.00
2018-05-03T00:36:15.094Z,4.40
2018-05-03T00:38:49.211Z,5.20
2018-05-03T00:41:23.256Z,3.97
2018-05-03T00:43:57.580Z,4.60
2018-05-03T00:46:30.754Z,5.37
2018-05-03T00:49:04.456Z,5.30
2018-05-03T00:51:37.970Z,4.80
2018-05-03T00:54:19.759Z,5.30
2018-05-03T00:56:54.675Z,5.27
2018-05-03T00:59:28.636Z,4.57
2018-05-03T01:02:03.821Z,4.97
2018-05-03T01:04:36.982Z,5.97
2018-05-03T01:07:10.704Z,7.23
2018-05-03T01:09:44.717Z,5.17
2018-05-03T01:12:17.787Z,4.93
2018-05-03T01:14:52.020Z,5.80
2018-05-03T01:17:25.879Z,5.30
2018-05-03T01:19:59.164Z,6.17
2018-05-03T01:22:33.518Z,5.50
2018-05-03T01:25:07.708Z,5.50
2018-05-03T01:27:40.688Z,6.33
2018-05-03T01:30:14.197Z,4.70
2018-05-03T01:32:47.220Z,5.50
2018-05-03T01:37:27.546Z,5.63
2018-05-03T01:40:02.215Z,6.63
2018-05-03T01:42:39.130Z,5.30
2018-05-03T01:45:12.801Z,4.97
2018-05-03T01:47:48.195Z,5.47
2018-05-03T01:50:23.356Z,5.53
2018-05-03T01:52:56.607Z,5.63
2018-05-03T01:55:29.686Z,6.33
2018-05-03T01:58:03.046Z,7.20
2018-05-03T02:00:36.346Z,7.30
2018-05-03T02:03:10.310Z,6.50
2018-05-03T02:05:43.455Z,7.97
2018-05-03T02:08:16.791Z,7.50
2018-05-03T02:10:49.795Z,7.07
2018-05-03T02:13:26.401Z,5.87
2018-05-03T02:16:00.078Z,6.33
2018-05-03T02:18:33.491Z,5.57
2018-05-03T02:21:07.521Z,6.90
2018-05-03T02:23:40.558Z,6.00
2018-05-03T02:26:13.949Z,6.20
2018-05-03T02:28:51.398Z,7.40
2018-05-03T02:31:24.355Z,8.47
2018-05-03T02:33:59.828Z,7.73
2018-05-03T02:36:33.001Z,6.27
2018-05-03T02:39:06.306Z,7.07
2018-05-03T02:41:39.597Z,7.87
2018-05-03T02:44:12.734Z,7.50
2018-05-03T02:46:45.905Z,6.53
2018-05-03T02:49:19.099Z,6.03
2018-05-03T02:51:52.042Z,6.10
2018-05-03T02:54:25.111Z,5.60
2018-05-03T02:57:07.099Z,5.90
2018-05-03T03:04:07.370Z,6.10
2018-05-03T03:06:55.763Z,6.33
2018-05-03T03:11:37.915Z,6.60
2018-05-03T03:16:25.086Z,6.37
2018-05-03T03:20:16.218Z,6.00
2018-05-03T03:25:07.596Z,6.37
2018-05-03T03:29:58.886Z,7.53
2018-05-03T03:34:47.091Z,6.53
2018-05-03T03:39:33.821Z,5.93
2018-05-03T03:42:12.695Z,6.87
2018-05-03T03:44:48.609Z,6.87
2018-05-03T03:47:21.684Z,7.63
2018-05-03T03:49:54.784Z,8.33
2018-05-03T03:52:30.222Z,7.47
2018-05-03T03:55:03.394Z,7.17
2018-05-03T03:57:38.045Z,8.50
2018-05-03T04:00:11.275Z,7.70
2018-05-03T04:02:44.284Z,6.73
2018-05-03T04:05:17.491Z,7.20
2018-05-03T04:07:50.853Z,7.10
2018-05-03T04:10:23.986Z,6.83
2018-05-03T04:12:57.097Z,6.50
2018-05-03T04:15:32.277Z,6.77
2018-05-03T04:20:20.538Z,6.93
2018-05-03T04:23:01.195Z,6.50
2018-05-03T04:25:45.682Z,6.40
2018-05-03T04:28:18.736Z,7.00
2018-05-03T04:30:52.447Z,5.90
2018-05-03T04:33:29.459Z,6.33
2018-05-03T04:36:03.994Z,7.53
2018-05-03T04:38:37.755Z,9.40
2018-05-03T04:41:11.280Z,9.00
2018-05-03T04:43:44.816Z,7.93
2018-05-03T05:02:06.474Z,7.63
2018-05-03T05:04:40.717Z,7.90
2018-05-03T05:07:24.128Z,7.37
2018-05-03T05:09:57.995Z,7.10
2018-05-03T05:12:31.706Z,7.50
2018-05-03T05:15:06.127Z,7.70
2018-05-03T05:17:40.538Z,8.33
2018-05-03T05:20:15.177Z,7.73
2018-05-03T05:22:51.715Z,7.57
2018-05-03T05:25:25.727Z,7.70
2018-05-03T05:28:01.930Z,7.93
2018-05-03T05:30:36.638Z,9.10
2018-05-03T05:33:12.575Z,8.27
2018-05-03T05:35:48.167Z,8.63
2018-05-03T05:38:22.409Z,7.57
2018-05-03T05:40:56.165Z,8.00
2018-05-03T05:43:30.422Z,9.03
2018-05-03T05:46:06.011Z,7.90
2018-05-03T05:48:41.450Z,8.83
2018-05-03T05:51:16.051Z,8.77
2018-05-03T05:53:49.812Z,8.33
2018-05-03T05:56:27.822Z,7.20
2018-05-03T05:59:02.323Z,8.50
2018-05-03T06:01:38.576Z,6.53
2018-05-03T06:04:12.420Z,7.37
2018-05-03T06:06:47.037Z,7.60
2018-05-03T06:09:20.968Z,6.27
2018-05-03T06:11:54.723Z,7.17
2018-05-03T06:14:30.476Z,7.60
2018-05-03T06:17:04.467Z,7.40
2018-05-03T06:19:40.554Z,8.00
2018-05-03T06:22:15.293Z,8.00
2018-05-03T06:24:52.196Z,7.17
2018-05-03T06:27:26.690Z,7.57
2018-05-03T06:30:00.584Z,7.47
2018-05-03T06:32:34.726Z,7.47
2018-05-03T06:35:10.077Z,7.70
2018-05-03T06:37:44.568Z,8.63
2018-05-03T06:40:19.765Z,7.73
2018-05-03T06:42:54.598Z,7.83
2018-05-03T06:45:28.481Z,8.03
2018-05-03T06:48:03.473Z,7.87
2018-05-03T06:50:37.246Z,8.13
2018-05-03T06:53:11.553Z,6.93
2018-05-03T06:55:45.273Z,6.70
2018-05-03T06:58:19.232Z,6.93
2018-05-03T07:00:53.348Z,6.70
2018-05-03T07:03:27.252Z,7.27
2018-05-03T07:06:01.230Z,6.80
2018-05-03T07:08:35.301Z,7.53
2018-05-03T07:11:09.681Z,6.03
2018-05-03T07:13:44.249Z,6.17
2018-05-03T07:16:21.220Z,7.37
2018-05-03T07:18:56.650Z,6.20
2018-05-03T07:21:32.784Z,7.60
2018-05-03T07:24:06.630Z,7.33
2018-05-03T07:26:42.791Z,6.60
2018-05-03T07:29:19.411Z,5.77
2018-05-03T07:31:54.850Z,6.70
2018-05-03T07:34:29.207Z,6.43
2018-05-03T07:37:03.867Z,5.73
2018-05-03T07:39:39.324Z,6.53
2018-05-03T07:42:14.453Z,6.90
2018-05-03T07:44:48.681Z,6.47
2018-05-03T07:47:22.764Z,6.67
2018-05-03T07:49:56.708Z,6.80
2018-05-03T07:52:30.582Z,6.80
2018-05-03T07:55:06.760Z,5.73
2018-05-03T07:57:40.948Z,5.07
2018-05-03T08:00:15.004Z,5.73
2018-05-03T08:02:49.575Z,4.97
2018-05-03T08:05:23.747Z,5.83
2018-05-03T08:07:58.576Z,4.73
2018-05-03T08:10:33.161Z,4.80
2018-05-03T08:13:07.256Z,5.20
2018-05-03T08:15:45.312Z,5.77
2018-05-03T08:18:19.435Z,5.80
2018-05-03T08:20:53.137Z,5.10
2018-05-03T08:23:28.247Z,4.37
2018-05-03T08:26:02.886Z,5.17
2018-05-03T08:28:36.787Z,5.63
2018-05-03T08:31:11.181Z,6.20
2018-05-03T08:36:13.380Z,6.60
2018-05-03T08:38:47.525Z,5.40
2018-05-03T08:41:21.397Z,4.87
2018-05-03T08:43:56.297Z,5.90
2018-05-03T08:46:30.093Z,4.53
2018-05-03T08:49:06.507Z,5.40
2018-05-03T08:51:40.869Z,3.83
2018-05-03T08:54:14.333Z,4.57
2018-05-03T08:56:48.183Z,4.27
2018-05-03T08:59:21.631Z,4.77
2018-05-03T09:01:55.200Z,4.70
2018-05-03T09:04:29.014Z,5.00
2018-05-03T09:07:02.527Z,5.00
2018-05-03T09:09:36.462Z,5.07
2018-05-03T09:12:12.620Z,5.27
2018-05-03T09:14:47.219Z,6.10
2018-05-03T09:17:20.984Z,4.90
2018-05-03T09:19:55.154Z,4.40
2018-05-03T09:22:30.095Z,4.93
2018-05-03T09:25:04.207Z,5.90
2018-05-03T09:27:38.208Z,5.27
2018-05-03T09:30:12.125Z,5.37
2018-05-03T09:32:47.503Z,4.70
2018-05-03T09:35:21.529Z,5.70
2018-05-03T09:37:56.263Z,5.57
2018-05-03T09:40:30.525Z,4.80
2018-05-03T09:43:04.611Z,5.40
2018-05-03T09:45:38.140Z,6.10
2018-05-03T09:48:12.056Z,5.53
2018-05-03T09:50:46.639Z,5.50
2018-05-03T09:53:20.684Z,4.83
2018-05-03T09:55:54.913Z,6.57
2018-05-03T09:58:28.681Z,5.30
2018-05-03T10:01:02.231Z,5.43
2018-05-03T10:03:36.040Z,5.87
2018-05-03T10:06:11.758Z,6.53
2018-05-03T10:08:46.881Z,6.17
2018-05-03T10:11:20.799Z,5.40
2018-05-03T10:13:54.551Z,5.20
2018-05-03T10:16:28.321Z,8.00
2018-05-03T10:19:02.215Z,5.43
2018-05-03T10:21:36.283Z,5.80
2018-05-03T10:24:10.080Z,5.40
2018-05-03T10:26:43.978Z,5.73
2018-05-03T10:29:18.244Z,7.17
2018-05-03T10:31:54.268Z,5.60
2018-05-03T10:34:28.692Z,7.20
2018-05-03T10:37:04.049Z,6.00
2018-05-03T10:39:37.718Z,5.23
2018-05-03T10:42:12.745Z,5.67
2018-05-03T10:44:46.275Z,7.83
2018-05-03T10:47:19.995Z,6.13
2018-05-03T10:49:54.652Z,6.13
2018-05-03T10:52:30.409Z,4.90
2018-05-03T10:55:04.185Z,7.63
2018-05-03T10:57:39.363Z,6.17
2018-05-03T11:00:14.223Z,5.80
2018-05-03T11:02:47.965Z,5.03
2018-05-03T11:05:21.781Z,5.87
2018-05-03T11:07:55.800Z,6.00
2018-05-03T11:10:29.424Z,7.30
2018-05-03T11:13:03.193Z,7.10
2018-05-03T11:15:36.899Z,6.17
2018-05-03T11:18:10.446Z,5.83
2018-05-03T11:20:44.883Z,6.60
2018-05-03T11:23:18.429Z,7.20
2018-05-03T11:25:54.579Z,7.73
2018-05-03T11:28:28.254Z,6.50
2018-05-03T11:31:02.051Z,7.17
2018-05-03T11:33:38.535Z,8.30
2018-05-03T11:36:13.645Z,10.23
2018-05-03T11:39:01.924Z,7.47
2018-05-03T11:41:45.374Z,6.77
2018-05-03T11:44:23.383Z,7.57
2018-05-03T11:47:02.707Z,6.90
2018-05-03T11:49:37.068Z,7.00
2018-05-03T11:52:11.510Z,8.13
2018-05-03T11:54:45.157Z,7.70
2018-05-03T11:57:21.512Z,6.20
2018-05-03T11:59:54.862Z,7.60
2018-05-03T12:02:32.552Z,6.83
2018-05-03T12:05:06.075Z,7.33
2018-05-03T12:07:40.283Z,7.13
2018-05-03T12:10:14.022Z,7.23
2018-05-03T12:12:47.999Z,6.93
2018-05-03T12:15:22.015Z,8.00
2018-05-03T12:17:58.328Z,7.03
2018-05-03T12:20:32.709Z,8.50
2018-05-03T12:23:10.285Z,6.40
2018-05-03T12:25:46.101Z,8.00
2018-05-03T12:28:36.657Z,7.03
2018-05-03T12:31:20.960Z,7.77
2018-05-03T12:33:55.391Z,7.90
2018-05-03T12:36:31.460Z,8.10
2018-05-03T12:39:06.956Z,7.03
2018-05-03T12:41:43.436Z,8.33
2018-05-03T12:44:19.289Z,7.17
2018-05-03T12:46:54.405Z,7.07
2018-05-03T12:49:28.042Z,7.03
2018-05-03T12:52:03.149Z,6.33
2018-05-03T12:54:38.065Z,6.23
2018-05-03T12:57:12.122Z,8.40
2018-05-03T12:59:47.993Z,6.43
2018-05-03T13:02:21.457Z,5.90
2018-05-03T13:04:57.655Z,6.30
2018-05-03T13:07:31.344Z,5.83
2018-05-03T13:10:07.559Z,5.97
2018-05-03T13:12:44.920Z,5.63
2018-05-03T13:15:21.500Z,6.30
2018-05-03T13:17:55.944Z,6.03
2018-05-03T13:20:30.486Z,6.50
2018-05-03T13:23:08.617Z,6.80
2018-05-03T13:25:52.963Z,6.60
2018-05-03T13:28:31.149Z,5.90
2018-05-03T13:31:08.899Z,6.10
2018-05-03T13:33:43.003Z,6.10
2018-05-03T13:36:17.710Z,5.70
2018-05-03T13:38:53.480Z,5.83
2018-05-03T13:41:29.180Z,4.73
2018-05-03T13:44:06.463Z,5.50
2018-05-03T13:46:41.328Z,6.30
2018-05-03T13:49:17.386Z,5.03
2018-05-03T13:51:52.623Z,6.20
2018-05-03T13:54:27.803Z,6.70
2018-05-03T13:57:09.243Z,6.17
2018-05-03T13:59:44.017Z,5.87
2018-05-03T14:02:18.107Z,6.80
2018-05-03T14:04:55.134Z,6.67
2018-05-03T14:07:31.399Z,8.27
2018-05-03T14:10:08.149Z,6.00
2018-05-03T14:12:42.428Z,7.43
2018-05-03T14:15:16.984Z,6.73
2018-05-03T14:17:53.458Z,6.53
2018-05-03T14:20:28.083Z,6.10
2018-05-03T14:23:02.634Z,6.57
2018-05-03T14:25:38.756Z,7.07
2018-05-03T14:28:21.848Z,7.10
2018-05-03T14:31:00.487Z,6.47
2018-05-03T14:33:39.590Z,7.23
2018-05-03T14:36:15.644Z,6.60
2018-05-03T14:38:51.119Z,7.03
2018-05-03T14:41:29.814Z,8.23
2018-05-03T14:44:06.449Z,7.30
2018-05-03T14:46:40.516Z,6.70
2018-05-03T14:49:14.166Z,7.87
2018-05-03T14:51:48.590Z,8.30
2018-05-03T14:54:22.392Z,8.33
2018-05-03T14:56:59.595Z,7.60
2018-05-03T14:59:33.616Z,7.93
2018-05-03T15:08:38.655Z,7.90
2018-05-03T15:11:14.222Z,7.80
2018-05-03T15:13:49.640Z,7.13
2018-05-03T15:16:23.647Z,7.07
2018-05-03T15:18:58.746Z,6.90
2018-05-03T15:21:33.790Z,7.63
2018-05-03T15:24:07.779Z,7.53
2018-05-03T15:26:55.197Z,7.70
2018-05-03T15:29:32.098Z,8.27
2018-05-03T15:32:05.825Z,6.87
2018-05-03T15:34:41.459Z,7.90
2018-05-03T15:37:17.330Z,7.27
2018-05-03T15:39:52.696Z,6.53
2018-05-03T15:42:27.922Z,6.13
2018-05-03T15:45:03.524Z,7.23
2018-05-03T15:47:38.480Z,5.97
2018-05-03T15:50:13.292Z,8.17
2018-05-03T15:52:47.280Z,9.17
2018-05-03T15:55:21.233Z,9.27
2018-05-03T15:57:55.395Z,8.63
2018-05-03T16:00:29.529Z,9.30
2018-05-03T16:03:04.147Z,9.80
2018-05-03T16:05:39.282Z,9.40
2018-05-03T16:08:13.295Z,10.90
2018-05-03T16:10:47.258Z,11.00
2018-05-03T16:13:21.573Z,8.37
2018-05-03T16:15:55.447Z,8.23
2018-05-03T16:18:31.523Z,8.47
2018-05-03T16:21:05.395Z,8.57
2018-05-03T16:23:43.334Z,7.67
2018-05-03T16:26:16.970Z,10.17
2018-05-03T16:28:53.420Z,9.97
2018-05-03T16:31:27.202Z,8.47
2018-05-03T16:34:01.255Z,7.67
2018-05-03T16:36:36.190Z,7.80
2018-05-03T16:39:11.684Z,8.57
2018-05-03T16:41:45.944Z,8.60
2018-05-03T16:44:19.616Z,7.90
2018-05-03T16:46:53.672Z,8.80
2018-05-03T16:49:31.970Z,7.73
2018-05-03T16:52:06.619Z,8.33
2018-05-03T16:54:41.816Z,8.50
2018-05-03T16:57:16.985Z,7.50
2018-05-03T16:59:52.125Z,7.67
2018-05-03T17:02:27.129Z,8.93
2018-05-03T17:05:01.284Z,8.37
2018-05-03T17:07:37.325Z,9.00
2018-05-03T17:10:10.927Z,8.70
2018-05-03T17:12:45.142Z,7.00
2018-05-03T17:15:18.887Z,7.07
2018-05-03T17:17:52.760Z,8.87
2018-05-03T17:20:27.314Z,8.13
2018-05-03T17:23:00.791Z,8.47
2018-05-03T17:25:34.732Z,7.50
2018-05-03T17:28:09.068Z,8.10
2018-05-03T17:30:43.451Z,7.20
2018-05-03T17:33:18.993Z,8.27
2018-05-03T17:35:54.103Z,8.50
2018-05-03T17:38:30.971Z,7.40
2018-05-03T17:41:04.585Z,6.70
2018-05-03T17:43:38.582Z,8.93
2018-05-03T17:46:13.149Z,6.67
2018-05-03T17:48:49.010Z,7.30
2018-05-03T17:51:22.946Z,7.53
2018-05-03T17:53:56.444Z,6.80
2018-05-03T17:56:30.391Z,5.50
2018-05-03T17:59:04.704Z,7.17
2018-05-03T18:01:38.427Z,5.40
2018-05-03T18:04:13.125Z,6.03
2018-05-03T18:06:50.135Z,5.43
2018-05-03T18:09:26.643Z,5.80
2018-05-03T18:12:01.516Z,4.60
2018-05-03T18:14:36.236Z,3.70
2018-05-03T18:17:09.614Z,3.83
2018-05-03T18:19:45.667Z,4.37
2018-05-03T18:22:21.182Z,3.40
2018-05-03T18:24:55.143Z,3.70
2018-05-03T18:27:28.984Z,4.43
2018-05-03T18:30:02.988Z,4.07
2018-05-03T18:32:36.872Z,3.73
2018-05-03T18:35:13.059Z,3.83
2018-05-03T18:37:47.805Z,4.43
2018-05-03T18:40:22.226Z,3.73
2018-05-03T18:45:35.770Z,2.37
2018-05-03T18:48:09.516Z,2.27
2018-05-03T18:50:46.371Z,2.53
2018-05-03T18:53:20.123Z,2.50
2018-05-03T18:55:53.906Z,3.37
2018-05-03T18:58:28.316Z,3.00
2018-05-03T19:01:04.747Z,4.50
2018-05-03T19:03:39.386Z,4.33
2018-05-03T19:06:16.378Z,3.17
2018-05-03T19:08:54.048Z,4.07
2018-05-03T19:11:37.199Z,3.27
2018-05-03T19:14:12.841Z,3.37
2018-05-03T19:16:46.793Z,3.43
2018-05-03T19:19:21.055Z,3.10
2018-05-03T19:22:00.735Z,4.33
2018-05-03T19:24:36.945Z,3.93
2018-05-03T19:27:12.640Z,4.40
2018-05-03T19:29:48.094Z,3.60
2018-05-03T19:32:27.640Z,3.53
2018-05-03T19:35:02.053Z,3.23
2018-05-03T19:37:36.044Z,5.07
2018-05-03T19:40:09.463Z,3.63
2018-05-03T19:42:43.737Z,4.27
2018-05-03T19:45:17.400Z,3.73
2018-05-03T19:47:53.155Z,3.57
2018-05-03T19:50:28.940Z,3.30
2018-05-03T19:53:02.837Z,2.70
2018-05-03T19:55:37.410Z,4.13
2018-05-03T19:58:11.017Z,3.93
2018-05-03T20:00:45.195Z,3.40
2018-05-03T20:03:21.057Z,2.50
2018-05-03T20:05:56.748Z,3.47
2018-05-03T20:08:31.763Z,4.97
2018-05-03T20:11:07.140Z,3.00
2018-05-03T20:13:40.534Z,3.17
2018-05-03T20:16:15.072Z,3.40
2018-05-03T20:18:48.704Z,4.10
2018-05-03T20:21:26.062Z,3.17
2018-05-03T20:24:00.326Z,2.43
2018-05-03T20:26:36.996Z,8.13
2018-05-03T20:29:12.143Z,2.43
2018-05-03T20:31:48.317Z,3.50
2018-05-03T20:34:23.585Z,2.27
2018-05-03T20:36:57.047Z,6.10
2018-05-03T20:39:34.138Z,3.30
2018-05-03T20:42:07.749Z,2.43
2018-05-03T20:44:44.037Z,1.87
2018-05-03T20:47:18.218Z,3.43
2018-05-03T20:49:54.321Z,3.67
2018-05-03T20:52:27.661Z,1.83
2018-05-03T20:55:05.321Z,4.97
2018-05-03T20:57:39.036Z,3.70
2018-05-03T21:00:14.651Z,4.40
2018-05-03T21:02:49.060Z,1.97
2018-05-03T21:05:26.441Z,3.03
2018-05-03T21:08:02.040Z,2.27
2018-05-03T21:10:38.140Z,2.90
2018-05-03T21:13:11.681Z,1.60
2018-05-03T21:15:45.025Z,2.27
2018-05-03T21:18:18.977Z,2.47
2018-05-03T21:20:57.091Z,2.60
2018-05-03T21:23:30.747Z,5.50
2018-05-03T21:26:04.285Z,2.30
2018-05-03T21:28:38.181Z,2.33
2018-05-03T21:31:12.067Z,2.23
2018-05-03T21:33:46.279Z,3.43
2018-05-03T21:36:20.013Z,2.27
2018-05-03T21:38:54.769Z,4.47
2018-05-03T21:41:28.169Z,3.30
2018-05-03T21:44:01.956Z,2.43
2018-05-03T21:46:37.400Z,1.70
2018-05-03T21:49:11.099Z,4.70
2018-05-03T21:51:45.987Z,4.07
2018-05-03T21:54:20.491Z,2.57
2018-05-03T21:56:54.792Z,2.97
2018-05-03T21:59:29.437Z,3.47
2018-05-03T22:02:03.550Z,2.23
2018-05-03T22:04:37.896Z,3.10
2018-05-03T22:07:13.784Z,3.67
2018-05-03T22:09:47.653Z,3.40
2018-05-03T22:12:21.297Z,2.27
2018-05-03T22:17:22.560Z,3.37
2018-05-03T22:19:59.917Z,2.03
2018-05-03T22:22:33.479Z,2.83
2018-05-03T22:25:08.682Z,4.60
2018-05-03T22:30:10.616Z,3.33
2018-05-03T22:32:44.134Z,3.07
2018-05-03T22:35:19.984Z,1.67
2018-05-03T22:37:53.786Z,2.17
2018-05-03T22:40:27.426Z,1.60
2018-05-03T22:43:00.894Z,1.93
2018-05-03T22:45:36.680Z,2.60
2018-05-03T22:50:36.790Z,2.97
2018-05-03T22:53:10.186Z,2.80
2018-05-03T22:55:43.743Z,3.13
2018-05-03T22:58:18.590Z,1.93
2018-05-03T23:00:53.404Z,2.10
2018-05-03T23:03:26.836Z,1.93
2018-05-03T23:06:00.271Z,2.60
2018-05-03T23:08:34.120Z,2.10
2018-05-03T23:11:07.932Z,2.00
2018-05-03T23:13:41.230Z,2.67
2018-05-03T23:16:14.862Z,2.77
2018-05-03T23:18:48.324Z,2.33
2018-05-03T23:21:22.015Z,1.73
2018-05-03T23:23:58.125Z,2.00
2018-05-03T23:26:32.026Z,1.97
2018-05-03T23:29:05.453Z,2.23
2018-05-03T23:31:39.394Z,1.23
2018-05-03T23:34:13.568Z,1.67
2018-05-03T23:36:48.654Z,2.70
2018-05-03T23:39:22.079Z,1.70
2018-05-03T23:41:55.572Z,2.80
2018-05-03T23:44:29.542Z,1.30
2018-05-03T23:47:05.339Z,2.77
2018-05-03T23:49:38.716Z,2.93
2018-05-03T23:52:12.733Z,1.97
2018-05-03T23:54:46.890Z,1.67
2018-05-03T23:57:20.256Z,1.40
2018-05-03T23:59:58.247Z,5.13
